Time;durP1;ratioP1;P1;durP2;ratioP2;P2;SDS_P1;SDS_P2;PMS_P1;PMS_P2;Temp;Humidity;BMP_temperature;BMP_pressure;BME280_temperature;BME280_humidity;BME280_pressure;Samples;Min_cycle;Max_cycle;Signal;HPM_P1;HPM_P2
2021/05/15 00:01:35;;;;;;;1999.90;999.90;;;;;;;9.85;83.87;95328.34;5075796;28;20272;-61
2021/05/15 00:04:02;;;;;;;1999.90;999.90;;;;;;;9.73;83.94;95339.22;5076479;28;20281;-61
2021/05/15 00:06:29;;;;;;;1999.90;999.90;;;;;;;9.59;84.69;95332.50;5076063;28;20651;-61
2021/05/15 00:08:57;;;;;;;1999.90;999.90;;;;;;;9.46;85.19;95339.25;5076703;28;20199;-60
2021/05/15 00:11:25;;;;;;;1999.90;999.90;;;;;;;9.40;85.92;95341.19;5075798;28;20236;-60
2021/05/15 00:13:52;;;;;;;1999.90;999.90;;;;;;;9.46;86.88;95337.41;5075248;28;20211;-61
2021/05/15 00:16:19;;;;;;;1999.90;999.90;;;;;;;9.55;87.12;95341.94;5075150;28;20698;-60
2021/05/15 00:18:47;;;;;;;1999.90;999.90;;;;;;;9.49;87.31;95336.84;5075492;28;20686;-59
2021/05/15 00:21:14;;;;;;;1999.90;999.90;;;;;;;9.45;87.46;95335.91;5077565;28;20197;-59
2021/05/15 00:23:41;;;;;;;1999.90;999.90;;;;;;;9.47;87.87;95333.78;5076570;28;20223;-59
2021/05/15 00:26:08;;;;;;;1999.90;999.90;;;;;;;9.50;88.88;95338.41;5077198;28;20192;-59
2021/05/15 00:28:35;;;;;;;1999.90;999.90;;;;;;;9.54;88.52;95338.56;5075660;28;20208;-60
2021/05/15 00:31:02;;;;;;;1999.90;999.90;;;;;;;9.56;89.01;95341.66;5076956;28;20250;-59
2021/05/15 00:33:29;;;;;;;1999.90;999.90;;;;;;;9.57;88.28;95335.38;5077344;28;20663;-60
2021/05/15 00:35:56;;;;;;;1999.90;999.90;;;;;;;9.67;87.62;95334.41;5076480;28;20725;-60
2021/05/15 00:38:23;;;;;;;1999.90;999.90;;;;;;;9.63;88.19;95343.84;5074958;28;20189;-59
2021/05/15 00:40:50;;;;;;;1999.90;999.90;;;;;;;9.55;88.29;95345.31;5075516;28;20219;-60
2021/05/15 00:43:18;;;;;;;1999.90;999.90;;;;;;;9.60;88.35;95353.00;5075698;28;20343;-59
2021/05/15 00:45:46;;;;;;;1999.90;999.90;;;;;;;9.57;88.45;95348.34;5074309;28;20219;-60
2021/05/15 00:48:13;;;;;;;1999.90;999.90;;;;;;;9.58;88.65;95344.72;5075594;28;20223;-59
2021/05/15 00:50:40;;;;;;;1999.90;999.90;;;;;;;9.58;88.81;95344.72;5076242;28;20196;-58
2021/05/15 00:53:07;;;;;;;1999.90;999.90;;;;;;;9.52;88.78;95346.63;5073334;28;20231;-59
2021/05/15 00:55:35;;;;;;;1999.90;999.90;;;;;;;9.67;88.26;95334.41;5075085;28;20197;-59
2021/05/15 00:58:04;;;;;;;1999.90;999.90;;;;;;;9.65;88.40;95331.38;5074250;28;20196;-60
2021/05/15 01:00:31;;;;;;;1999.90;999.90;;;;;;;9.72;88.12;95336.91;5075267;28;20200;-60
2021/05/15 01:02:59;;;;;;;1999.90;999.90;;;;;;;9.72;88.04;95331.72;5075683;28;20232;-60
2021/05/15 01:05:27;;;;;;;1999.90;999.90;;;;;;;9.71;88.06;95332.81;5074901;28;20235;-60
2021/05/15 01:07:54;;;;;;;1999.90;999.90;;;;;;;9.69;88.49;95327.88;5075907;28;20200;-60
2021/05/15 01:10:21;;;;;;;1999.90;999.90;;;;;;;9.66;89.06;95325.13;5076290;28;20193;-59
2021/05/15 01:12:51;;;;;;;1999.90;999.90;;;;;;;9.60;89.90;95327.03;5075542;28;20224;-59
2021/05/15 01:15:19;;;;;;;1999.90;999.90;;;;;;;9.51;89.96;95328.78;5073350;28;20199;-62
2021/05/15 01:17:50;;;;;;;1999.90;999.90;;;;;;;9.46;90.59;95327.03;5075223;28;20197;-59
2021/05/15 01:20:18;;;;;;;1999.90;999.90;;;;;;;9.50;90.90;95335.81;5076047;28;20220;-60
2021/05/15 01:22:46;;;;;;;1999.90;999.90;;;;;;;9.47;91.09;95323.41;5076228;28;20239;-59
2021/05/15 01:25:15;;;;;;;1999.90;999.90;;;;;;;9.59;90.41;95327.31;5076010;28;20295;-60
2021/05/15 01:27:42;;;;;;;1999.90;999.90;;;;;;;9.60;90.32;95321.84;5076933;28;20196;-60
2021/05/15 01:30:10;;;;;;;1999.90;999.90;;;;;;;9.66;90.14;95325.13;5073733;28;20669;-63
2021/05/15 01:32:40;;;;;;;1999.90;999.90;;;;;;;9.68;89.45;95323.75;5070600;28;20275;-62
2021/05/15 01:35:10;;;;;;;1999.90;999.90;;;;;;;9.60;89.94;95313.31;5070817;28;20686;-62
2021/05/15 01:37:37;;;;;;;1999.90;999.90;;;;;;;9.52;91.65;95320.69;5070758;28;20196;-61
2021/05/15 01:40:08;;;;;;;1999.90;999.90;;;;;;;9.51;91.41;95326.94;5069788;28;20188;-63
2021/05/15 01:42:36;;;;;;;1999.90;999.90;;;;;;;9.44;91.81;95325.81;5070389;28;20192;-63
2021/05/15 01:45:05;;;;;;;1999.90;999.90;;;;;;;9.30;92.27;95325.81;5070430;28;20726;-64
2021/05/15 01:47:36;;;;;;;1999.90;999.90;;;;;;;9.19;92.09;95332.25;5070420;28;20196;-62
2021/05/15 01:50:04;;;;;;;1999.90;999.90;;;;;;;9.15;92.05;95326.09;5070686;28;20192;-61
2021/05/15 01:52:31;;;;;;;1999.90;999.90;;;;;;;8.87;92.59;95335.66;5070749;28;20196;-61
2021/05/15 01:54:58;;;;;;;1999.90;999.90;;;;;;;8.72;92.64;95330.75;5070354;28;20215;-61
2021/05/15 01:57:26;;;;;;;1999.90;999.90;;;;;;;8.75;92.26;95337.97;5070472;28;20193;-62
2021/05/15 01:59:52;;;;;;;1999.90;999.90;;;;;;;8.80;91.76;95337.09;5070253;28;20196;-62
2021/05/15 02:02:19;;;;;;;1999.90;999.90;;;;;;;8.91;90.92;95336.66;5070032;28;20617;-62
2021/05/15 02:04:46;;;;;;;1999.90;999.90;;;;;;;8.89;90.77;95332.78;5070097;28;20189;-62
2021/05/15 02:07:13;;;;;;;1999.90;999.90;;;;;;;8.88;90.24;95333.84;5070383;28;20203;-61
2021/05/15 02:09:40;;;;;;;1999.90;999.90;;;;;;;8.88;90.72;95334.63;5070463;28;20235;-62
2021/05/15 02:12:07;;;;;;;1999.90;999.90;;;;;;;8.83;90.84;95333.94;5069953;28;20315;-61
2021/05/15 02:14:35;;;;;;;1999.90;999.90;;;;;;;8.73;90.98;95339.28;5069998;28;20203;-61
2021/05/15 02:17:02;;;;;;;1999.90;999.90;;;;;;;8.73;91.25;95347.06;5070092;28;20236;-61
2021/05/15 02:19:29;;;;;;;1999.90;999.90;;;;;;;8.63;90.91;95348.00;5069909;28;20618;-61
2021/05/15 02:21:55;;;;;;;1999.90;999.90;;;;;;;8.49;92.25;95349.78;5070123;28;20663;-61
2021/05/15 02:24:22;;;;;;;1999.90;999.90;;;;;;;8.40;91.93;95346.28;5070469;28;20239;-61
2021/05/15 02:26:49;;;;;;;1999.90;999.90;;;;;;;8.23;92.58;95339.00;5069803;28;20684;-59
2021/05/15 02:29:16;;;;;;;1999.90;999.90;;;;;;;8.16;93.07;95336.00;5070263;28;20552;-61
2021/05/15 02:31:44;;;;;;;1999.90;999.90;;;;;;;8.12;93.20;95335.00;5070163;28;20784;-60
2021/05/15 02:34:11;;;;;;;1999.90;999.90;;;;;;;8.06;93.55;95330.97;5070158;28;20210;-60
2021/05/15 02:36:37;;;;;;;1999.90;999.90;;;;;;;8.12;93.23;95330.59;5070157;28;20204;-60
2021/05/15 02:39:05;;;;;;;1999.90;999.90;;;;;;;8.10;92.84;95329.38;5069786;28;20192;-60
2021/05/15 02:41:31;;;;;;;1999.90;999.90;;;;;;;8.05;93.18;95324.25;5069819;28;20253;-61
2021/05/15 02:43:58;;;;;;;1999.90;999.90;;;;;;;7.95;93.70;95327.00;5070179;28;20259;-60
2021/05/15 02:46:25;;;;;;;1999.90;999.90;;;;;;;8.01;94.15;95320.69;5069800;28;20192;-60
2021/05/15 02:48:53;;;;;;;1999.90;999.90;;;;;;;8.00;94.04;95324.34;5070065;28;20205;-62
2021/05/15 02:51:20;;;;;;;1999.90;999.90;;;;;;;8.07;94.62;95320.34;5070754;28;20291;-61
2021/05/15 02:53:46;;;;;;;1999.90;999.90;;;;;;;8.10;94.72;95321.59;5073933;28;20193;-60
2021/05/15 02:56:13;;;;;;;1999.90;999.90;;;;;;;8.10;94.39;95321.59;5073784;28;20203;-59
2021/05/15 02:58:40;;;;;;;1999.90;999.90;;;;;;;8.20;94.84;95316.28;5074077;28;20196;-60
2021/05/15 03:01:06;;;;;;;1999.90;999.90;;;;;;;8.21;95.01;95321.19;5073482;28;20199;-61
2021/05/15 03:03:33;;;;;;;1999.90;999.90;;;;;;;8.20;96.26;95311.88;5073672;28;20224;-61
2021/05/15 03:06:01;;;;;;;1999.90;999.90;;;;;;;8.02;95.08;95309.31;5073424;28;20664;-62
2021/05/15 03:08:28;;;;;;;1999.90;999.90;;;;;;;7.81;94.81;95323.56;5073672;28;20302;-60
2021/05/15 03:10:55;;;;;;;1999.90;999.90;;;;;;;7.77;95.17;95324.09;5073377;28;20270;-60
2021/05/15 03:13:22;;;;;;;1999.90;999.90;;;;;;;7.58;95.15;95320.75;5073320;28;20232;-62
2021/05/15 03:15:48;;;;;;;1999.90;999.90;;;;;;;7.57;95.67;95318.47;5073443;28;20203;-61
2021/05/15 03:18:15;;;;;;;1999.90;999.90;;;;;;;7.54;95.85;95330.09;5073155;28;20202;-62
2021/05/15 03:20:42;;;;;;;1999.90;999.90;;;;;;;7.45;96.90;95329.19;5073302;28;20205;-61
2021/05/15 03:23:11;;;;;;;1999.90;999.90;;;;;;;7.51;97.12;95330.66;5073127;28;20231;-61
2021/05/15 03:25:38;;;;;;;1999.90;999.90;;;;;;;7.68;96.53;95328.38;5072139;28;20200;-61
2021/05/15 03:28:05;;;;;;;1999.90;999.90;;;;;;;7.82;96.19;95338.03;5073033;28;20702;-61
2021/05/15 03:30:32;;;;;;;1999.90;999.90;;;;;;;7.97;95.95;95346.34;5072948;28;20287;-61
2021/05/15 03:32:59;;;;;;;1999.90;999.90;;;;;;;8.09;95.41;95345.94;5073182;28;20325;-61
2021/05/15 03:35:28;;;;;;;1999.90;999.90;;;;;;;8.13;94.91;95337.31;5072943;28;20188;-63
2021/05/15 03:37:54;;;;;;;1999.90;999.90;;;;;;;8.06;95.85;95333.56;5073098;28;20199;-62
2021/05/15 03:40:22;;;;;;;1999.90;999.90;;;;;;;8.30;95.24;95338.69;5072949;28;20291;-58
2021/05/15 03:42:49;;;;;;;1999.90;999.90;;;;;;;8.48;94.53;95338.66;5072761;28;20612;-60
2021/05/15 03:45:16;;;;;;;1999.90;999.90;;;;;;;8.64;94.36;95342.53;5072688;28;20689;-62
2021/05/15 03:47:43;;;;;;;1999.90;999.90;;;;;;;8.69;93.98;95343.50;5072796;28;20290;-61
2021/05/15 03:50:10;;;;;;;1999.90;999.90;;;;;;;8.86;94.06;95341.91;5072743;28;20192;-61
2021/05/15 03:52:37;;;;;;;1999.90;999.90;;;;;;;9.02;93.47;95339.81;5072758;28;20708;-61
2021/05/15 03:55:05;;;;;;;1999.90;999.90;;;;;;;9.24;92.59;95339.16;5072802;28;20246;-61
2021/05/15 03:57:33;;;;;;;1999.90;999.90;;;;;;;9.20;93.34;95349.34;5072844;28;20816;-60
2021/05/15 04:00:00;;;;;;;1999.90;999.90;;;;;;;9.31;93.63;95340.31;5072665;28;20253;-61
2021/05/15 04:02:27;;;;;;;1999.90;999.90;;;;;;;9.46;92.54;95334.81;5072043;28;20617;-64
2021/05/15 04:04:54;;;;;;;1999.90;999.90;;;;;;;9.52;92.76;95332.91;5071843;28;20228;-61
2021/05/15 04:07:20;;;;;;;1999.90;999.90;;;;;;;9.63;92.98;95336.84;5072696;28;20193;-62
2021/05/15 04:09:47;;;;;;;1999.90;999.90;;;;;;;9.72;93.31;95342.09;5072582;28;20279;-62
2021/05/15 04:12:15;;;;;;;1999.90;999.90;;;;;;;9.87;92.04;95344.38;5072367;28;20232;-62
2021/05/15 04:14:45;;;;;;;1999.90;999.90;;;;;;;9.97;92.62;95346.00;5072053;28;20559;-62
2021/05/15 04:19:56;;;;;;;1999.90;999.90;;;;;;;10.28;89.79;95332.09;5072075;28;20303;-62
2021/05/15 04:22:23;;;;;;;1999.90;999.90;;;;;;;10.44;88.59;95336.94;5072356;28;20192;-62
2021/05/15 04:24:50;;;;;;;1999.90;999.90;;;;;;;10.58;88.70;95335.03;5072144;28;20238;-63
2021/05/15 04:27:17;;;;;;;1999.90;999.90;;;;;;;10.64;86.98;95331.25;5072131;28;20224;-62
2021/05/15 04:29:46;;;;;;;1999.90;999.90;;;;;;;10.75;87.07;95324.75;5071797;28;20224;-62
2021/05/15 04:32:13;;;;;;;1999.90;999.90;;;;;;;10.73;86.53;95327.63;5072153;28;20199;-62
2021/05/15 04:34:39;;;;;;;1999.90;999.90;;;;;;;10.80;85.75;95332.41;5072195;28;20216;-62
2021/05/15 04:37:06;;;;;;;1999.90;999.90;;;;;;;10.83;85.61;95331.81;5071964;28;20203;-61
2021/05/15 04:39:34;;;;;;;1999.90;999.90;;;;;;;11.00;85.04;95331.91;5071901;28;20203;-63
2021/05/15 04:42:01;;;;;;;1999.90;999.90;;;;;;;11.04;84.50;95330.25;5071582;28;20203;-64
2021/05/15 04:44:29;;;;;;;1999.90;999.90;;;;;;;10.98;84.95;95333.25;5071431;28;20285;-62
2021/05/15 04:46:57;;;;;;;1999.90;999.90;;;;;;;11.01;85.81;95336.03;5071458;28;20287;-62
2021/05/15 04:49:24;;;;;;;1999.90;999.90;;;;;;;11.07;85.63;95327.03;5071463;28;20196;-62
2021/05/15 04:51:50;;;;;;;1999.90;999.90;;;;;;;11.22;84.44;95329.22;5071571;28;20199;-62
2021/05/15 04:54:17;;;;;;;1999.90;999.90;;;;;;;11.17;84.65;95326.75;5071620;28;20210;-61
2021/05/15 04:56:44;;;;;;;1999.90;999.90;;;;;;;11.18;83.32;95328.31;5071214;28;20284;-63
2021/05/15 04:59:11;;;;;;;1999.90;999.90;;;;;;;11.36;83.61;95313.50;5071253;28;20201;-60
2021/05/15 05:01:38;;;;;;;1999.90;999.90;;;;;;;11.42;83.25;95312.31;5071667;28;20276;-60
2021/05/15 05:04:08;;;;;;;1999.90;999.90;;;;;;;11.55;83.08;95308.06;5071501;28;20228;-60
2021/05/15 05:06:35;;;;;;;1999.90;999.90;;;;;;;11.67;82.81;95303.03;5071407;28;20197;-60
2021/05/15 05:09:03;;;;;;;1999.90;999.90;;;;;;;11.93;81.68;95298.63;5071120;28;20201;-61
2021/05/15 05:11:29;;;;;;;1999.90;999.90;;;;;;;12.23;79.40;95294.34;5071012;28;20319;-60
2021/05/15 05:13:56;;;;;;;1999.90;999.90;;;;;;;12.32;79.32;95289.88;5071338;28;20193;-61
2021/05/15 05:16:23;;;;;;;1999.90;999.90;;;;;;;12.42;80.57;95280.97;5070993;28;20192;-62
2021/05/15 05:18:50;;;;;;;1999.90;999.90;;;;;;;12.51;78.36;95273.91;5071385;28;20668;-62
2021/05/15 05:21:18;;;;;;;1999.90;999.90;;;;;;;12.65;77.63;95273.75;5071183;28;20254;-62
2021/05/15 05:23:45;;;;;;;1999.90;999.90;;;;;;;12.77;77.91;95266.78;5070794;28;20228;-63
2021/05/15 05:26:13;;;;;;;1999.90;999.90;;;;;;;13.00;76.68;95259.47;5070666;28;20211;-62
2021/05/15 05:28:42;;;;;;;1999.90;999.90;;;;;;;13.30;75.05;95263.66;5070724;28;20200;-62
2021/05/15 05:31:09;;;;;;;1999.90;999.90;;;;;;;13.33;73.11;95264.88;5070776;28;20246;-62
2021/05/15 05:33:37;;;;;;;1999.90;999.90;;;;;;;13.49;72.76;95257.28;5070731;28;20547;-62
2021/05/15 05:36:05;;;;;;;1999.90;999.90;;;;;;;13.59;72.02;95255.06;5070950;28;20185;-62
2021/05/15 05:38:33;;;;;;;1999.90;999.90;;;;;;;13.60;72.40;95259.19;5070928;28;20211;-62
2021/05/15 05:41:00;;;;;;;1999.90;999.90;;;;;;;13.59;71.59;95254.28;5070882;28;20216;-62
2021/05/15 05:43:27;;;;;;;1999.90;999.90;;;;;;;13.51;72.76;95255.09;5070393;28;20231;-63
2021/05/15 05:45:54;;;;;;;1999.90;999.90;;;;;;;13.61;72.36;95255.50;5070756;28;20287;-62
2021/05/15 05:48:20;;;;;;;1999.90;999.90;;;;;;;13.77;72.98;95266.13;5070710;28;20679;-62
2021/05/15 05:50:48;;;;;;;1999.90;999.90;;;;;;;14.05;73.47;95269.00;5070517;28;20744;-62
2021/05/15 05:53:15;;;;;;;1999.90;999.90;;;;;;;14.03;74.04;95264.09;5070486;28;20226;-62
2021/05/15 05:55:43;;;;;;;1999.90;999.90;;;;;;;14.12;71.63;95269.25;5070730;28;20216;-61
2021/05/15 05:58:10;;;;;;;1999.90;999.90;;;;;;;14.46;72.17;95265.56;5070279;28;20196;-64
2021/05/15 06:00:37;;;;;;;1999.90;999.90;;;;;;;14.66;70.66;95267.38;5070468;28;20219;-61
2021/05/15 06:03:04;;;;;;;1999.90;999.90;;;;;;;15.28;67.15;95268.97;5070274;28;20220;-61
2021/05/15 06:05:31;;;;;;;1999.90;999.90;;;;;;;15.52;66.87;95268.22;5070308;28;20210;-61
2021/05/15 06:08:05;;;;;;;1999.90;999.90;;;;;;;15.61;64.33;95274.84;5070049;28;20201;-63
2021/05/15 06:10:35;;;;;;;1999.90;999.90;;;;;;;15.60;65.66;95264.69;5070142;28;20255;-61
2021/05/15 06:13:03;;;;;;;1999.90;999.90;;;;;;;15.07;67.60;95269.06;5070616;28;20228;-63
2021/05/15 06:15:30;;;;;;;1999.90;999.90;;;;;;;15.27;66.50;95277.91;5070061;28;20231;-64
2021/05/15 06:17:57;;;;;;;1999.90;999.90;;;;;;;15.28;64.96;95272.34;5070232;28;20201;-62
2021/05/15 06:20:24;;;;;;;1999.90;999.90;;;;;;;15.59;63.63;95271.78;5069678;28;20765;-62
2021/05/15 06:22:51;;;;;;;1999.90;999.90;;;;;;;15.78;63.74;95271.22;5069986;28;20192;-62
2021/05/15 06:25:18;;;;;;;1999.90;999.90;;;;;;;15.89;63.18;95272.25;5070308;28;20205;-61
2021/05/15 06:27:45;;;;;;;1999.90;999.90;;;;;;;15.97;62.71;95281.88;5069636;28;20287;-62
2021/05/15 06:30:14;;;;;;;1999.90;999.90;;;;;;;16.32;62.51;95279.47;5070186;28;20610;-62
2021/05/15 06:32:41;;;;;;;1999.90;999.90;;;;;;;16.66;60.99;95273.63;5070150;28;20413;-62
2021/05/15 06:35:09;;;;;;;1999.90;999.90;;;;;;;16.78;60.52;95270.19;5070182;28;20643;-62
2021/05/15 06:37:37;;;;;;;1999.90;999.90;;;;;;;17.07;60.54;95256.63;5070201;28;20676;-62
2021/05/15 06:40:06;;;;;;;1999.90;999.90;;;;;;;17.10;62.81;95253.31;5070165;28;20208;-61
2021/05/15 06:42:33;;;;;;;1999.90;999.90;;;;;;;17.16;61.53;95249.34;5069771;28;20558;-61
2021/05/15 06:45:00;;;;;;;1999.90;999.90;;;;;;;17.49;58.67;95242.91;5069495;28;20706;-62
2021/05/15 06:47:28;;;;;;;1999.90;999.90;;;;;;;17.20;58.57;95237.03;5069690;28;20192;-59
2021/05/15 06:49:55;;;;;;;1999.90;999.90;;;;;;;17.50;59.43;95232.06;5069903;28;20201;-60
2021/05/15 06:52:22;;;;;;;1999.90;999.90;;;;;;;17.65;57.51;95230.53;5070060;28;20227;-61
2021/05/15 06:54:49;;;;;;;1999.90;999.90;;;;;;;17.80;56.96;95234.97;5069925;28;20200;-61
2021/05/15 06:57:16;;;;;;;1999.90;999.90;;;;;;;17.67;58.18;95230.97;5069647;28;20248;-61
2021/05/15 06:59:42;;;;;;;1999.90;999.90;;;;;;;17.59;57.04;95237.16;5069658;28;20200;-63
2021/05/15 07:02:09;;;;;;;1999.90;999.90;;;;;;;17.89;55.94;95235.53;5069634;28;20200;-61
2021/05/15 07:04:37;;;;;;;1999.90;999.90;;;;;;;17.57;56.82;95231.47;5069820;28;20228;-62
2021/05/15 07:07:04;;;;;;;1999.90;999.90;;;;;;;17.96;57.14;95227.78;5069563;28;20573;-64
2021/05/15 07:09:31;;;;;;;1999.90;999.90;;;;;;;18.00;56.63;95223.38;5069648;28;20213;-63
2021/05/15 07:11:58;;;;;;;1999.90;999.90;;;;;;;18.30;54.22;95225.41;5069784;28;20240;-61
2021/05/15 07:14:25;;;;;;;1999.90;999.90;;;;;;;18.34;53.47;95226.22;5069748;28;20196;-62
2021/05/15 07:16:55;;;;;;;1999.90;999.90;;;;;;;18.60;52.75;95221.09;5069513;28;20196;-62
2021/05/15 07:19:21;;;;;;;1999.90;999.90;;;;;;;18.67;52.86;95213.31;5069767;28;20209;-61
2021/05/15 07:21:49;;;;;;;1999.90;999.90;;;;;;;18.67;54.26;95215.97;5069359;28;20875;-62
2021/05/15 07:24:16;;;;;;;1999.90;999.90;;;;;;;18.87;55.81;95204.25;5069336;28;20231;-62
2021/05/15 07:26:43;;;;;;;1999.90;999.90;;;;;;;18.95;54.68;95209.59;5069552;28;20200;-63
2021/05/15 07:29:10;;;;;;;1999.90;999.90;;;;;;;18.67;53.49;95213.31;5069219;28;20287;-63
2021/05/15 07:31:37;;;;;;;1999.90;999.90;;;;;;;18.57;52.55;95206.00;5069588;28;20571;-64
2021/05/15 07:34:04;;;;;;;1999.90;999.90;;;;;;;18.70;52.70;95204.72;5069274;28;20719;-63
2021/05/15 07:36:31;;;;;;;1999.90;999.90;;;;;;;18.45;51.71;95203.50;5069340;28;20193;-62
2021/05/15 07:38:59;;;;;;;1999.90;999.90;;;;;;;18.49;53.23;95199.06;5071210;28;20287;-63
2021/05/15 07:41:27;;;;;;;1999.90;999.90;;;;;;;18.74;53.32;95208.16;5073025;28;20647;-63
2021/05/15 07:43:54;;;;;;;1999.90;999.90;;;;;;;18.69;53.83;95205.81;5072938;28;20235;-63
2021/05/15 07:46:22;;;;;;;1999.90;999.90;;;;;;;18.56;54.49;95201.09;5072941;28;20199;-62
2021/05/15 07:48:49;;;;;;;1999.90;999.90;;;;;;;18.34;54.47;95200.69;5073038;28;20660;-62
2021/05/15 07:51:21;;;;;;;1999.90;999.90;;;;;;;18.79;55.43;95194.69;5072584;28;20192;-64
2021/05/15 07:53:48;;;;;;;1999.90;999.90;;;;;;;18.92;53.39;95190.03;5072951;28;20325;-62
2021/05/15 07:56:17;;;;;;;1999.90;999.90;;;;;;;19.24;53.77;95179.94;5072594;28;20283;-63
2021/05/15 07:58:44;;;;;;;1999.90;999.90;;;;;;;19.46;50.37;95168.59;5072482;28;20192;-62
2021/05/15 08:01:11;;;;;;;1999.90;999.90;;;;;;;19.63;51.25;95167.28;5072668;28;20273;-61
2021/05/15 08:03:38;;;;;;;1999.90;999.90;;;;;;;19.79;49.26;95159.94;5072247;28;20710;-61
2021/05/15 08:06:05;;;;;;;1999.90;999.90;;;;;;;20.17;49.61;95169.41;5072543;28;20193;-62
2021/05/15 08:08:32;;;;;;;1999.90;999.90;;;;;;;20.31;46.69;95164.31;5072231;28;20189;-62
2021/05/15 08:10:59;;;;;;;1999.90;999.90;;;;;;;20.36;46.89;95168.50;5072371;28;20236;-62
2021/05/15 08:13:26;;;;;;;1999.90;999.90;;;;;;;20.43;48.29;95166.66;5072424;28;20273;-62
2021/05/15 08:15:53;;;;;;;1999.90;999.90;;;;;;;20.80;49.05;95163.97;5072466;28;20200;-62
2021/05/15 08:18:20;;;;;;;1999.90;999.90;;;;;;;21.17;48.24;95174.41;5071984;28;20200;-62
2021/05/15 08:20:48;;;;;;;1999.90;999.90;;;;;;;21.59;45.90;95162.56;5072099;28;20192;-61
2021/05/15 08:23:15;;;;;;;1999.90;999.90;;;;;;;22.03;44.21;95157.06;5072159;28;20203;-61
2021/05/15 08:25:42;;;;;;;1999.90;999.90;;;;;;;22.43;43.87;95153.38;5071977;28;20283;-62
2021/05/15 08:28:13;;;;;;;1999.90;999.90;;;;;;;22.72;43.44;95154.91;5072043;28;20278;-61
2021/05/15 08:30:41;;;;;;;1999.90;999.90;;;;;;;23.00;42.82;95149.63;5071992;28;20199;-62
2021/05/15 08:33:08;;;;;;;1999.90;999.90;;;;;;;23.38;41.21;95141.94;5071953;28;20203;-62
2021/05/15 08:35:36;;;;;;;1999.90;999.90;;;;;;;22.76;42.99;95125.78;5071671;28;20682;-61
2021/05/15 08:38:04;;;;;;;1999.90;999.90;;;;;;;22.94;41.04;95118.56;5072128;28;20193;-62
2021/05/15 08:40:31;;;;;;;1999.90;999.90;;;;;;;22.83;43.11;95121.22;5071967;28;20207;-61
2021/05/15 08:42:58;;;;;;;1999.90;999.90;;;;;;;22.99;40.94;95120.81;5071751;28;20215;-60
2021/05/15 08:45:26;;;;;;;1999.90;999.90;;;;;;;22.90;40.77;95117.81;5071459;28;20253;-61
2021/05/15 08:47:55;;;;;;;1999.90;999.90;;;;;;;23.17;41.09;95119.66;5071491;28;20196;-61
2021/05/15 08:50:26;;;;;;;1999.90;999.90;;;;;;;23.07;41.29;95115.13;5071083;28;20196;-62
2021/05/15 08:52:54;;;;;;;1999.90;999.90;;;;;;;22.90;42.96;95121.22;5071306;28;20292;-61
2021/05/15 08:55:23;;;;;;;1999.90;999.90;;;;;;;22.96;40.08;95111.75;5071270;28;20229;-62
2021/05/15 08:57:51;;;;;;;1999.90;999.90;;;;;;;22.85;42.68;95095.13;5071033;28;20196;-61
2021/05/15 09:00:20;;;;;;;1999.90;999.90;;;;;;;23.09;42.06;95110.22;5071033;28;20616;-61
2021/05/15 09:02:49;;;;;;;1999.90;999.90;;;;;;;22.99;39.82;95108.34;5070886;28;20192;-62
2021/05/15 09:05:19;;;;;;;1999.90;999.90;;;;;;;23.08;42.09;95108.69;5071104;28;20265;-62
2021/05/15 09:07:50;;;;;;;1999.90;999.90;;;;;;;23.31;40.28;95104.84;5071131;28;20584;-61
2021/05/15 09:10:19;;;;;;;1999.90;999.90;;;;;;;23.28;39.81;95095.75;5070850;28;20283;-61
2021/05/15 09:12:47;;;;;;;1999.90;999.90;;;;;;;23.43;40.57;95101.75;5070738;28;20224;-61
2021/05/15 09:15:15;;;;;;;1999.90;999.90;;;;;;;23.37;38.32;95092.69;5070834;28;20188;-60
2021/05/15 09:17:44;;;;;;;1999.90;999.90;;;;;;;23.77;38.77;95102.78;5071184;28;20618;-61
2021/05/15 09:20:12;;;;;;;1999.90;999.90;;;;;;;24.06;39.29;95094.66;5070702;28;20266;-62
2021/05/15 09:22:40;;;;;;;1999.90;999.90;;;;;;;23.98;38.26;95099.25;5071188;28;20238;-63
2021/05/15 09:25:08;;;;;;;1999.90;999.90;;;;;;;23.98;37.91;95094.69;5070561;28;20236;-61
2021/05/15 09:27:37;;;;;;;1999.90;999.90;;;;;;;24.22;35.52;95094.94;5070628;28;20196;-64
2021/05/15 09:30:05;;;;;;;1999.90;999.90;;;;;;;24.36;35.72;95092.19;5070562;28;20331;-62
2021/05/15 09:32:41;;;;;;;1999.90;999.90;;;;;;;24.48;35.74;95094.38;5070750;28;20197;-64
2021/05/15 09:35:20;;;;;;;1999.90;999.90;;;;;;;24.49;33.97;95089.81;5070504;28;20200;-62
2021/05/15 09:37:50;;;;;;;1999.90;999.90;;;;;;;24.49;33.76;95095.91;5070715;28;20208;-62
2021/05/15 09:40:19;;;;;;;1999.90;999.90;;;;;;;24.14;31.95;95088.16;5070790;28;20207;-62
2021/05/15 09:42:47;;;;;;;1999.90;999.90;;;;;;;24.08;35.05;95092.38;5070609;28;20196;-62
2021/05/15 09:45:19;;;;;;;1999.90;999.90;;;;;;;23.85;36.46;95095.53;5070671;28;20319;-61
2021/05/15 09:47:59;;;;;;;1999.90;999.90;;;;;;;23.83;35.98;95085.31;5070674;28;20193;-62
2021/05/15 09:50:29;;;;;;;1999.90;999.90;;;;;;;23.85;36.89;95088.34;5070580;28;20200;-62
2021/05/15 09:53:11;;;;;;;1999.90;999.90;;;;;;;23.79;35.27;95081.94;5070128;28;20198;-62
2021/05/15 09:55:39;;;;;;;1999.90;999.90;;;;;;;23.61;37.86;95078.63;5070731;28;20261;-61
2021/05/15 09:58:08;;;;;;;1999.90;999.90;;;;;;;23.39;36.60;95075.25;5070244;28;20275;-60
2021/05/15 10:00:42;;;;;;;1999.90;999.90;;;;;;;22.91;39.20;95071.63;5069806;28;20277;-62
2021/05/15 10:03:23;;;;;;;1999.90;999.90;;;;;;;22.87;39.67;95070.88;5070013;28;20242;-62
2021/05/15 10:06:00;;;;;;;1999.90;999.90;;;;;;;22.59;40.54;95076.94;5070177;28;20675;-61
2021/05/15 10:08:29;;;;;;;1999.90;999.90;;;;;;;21.95;42.25;95073.50;5070260;28;20276;-61
2021/05/15 10:10:57;;;;;;;1999.90;999.90;;;;;;;21.95;40.98;95079.56;5070396;28;20224;-61
2021/05/15 10:13:25;;;;;;;1999.90;999.90;;;;;;;21.78;40.51;95075.72;5070484;28;20767;-64
2021/05/15 10:15:52;;;;;;;1999.90;999.90;;;;;;;21.69;43.57;95074.56;5070398;28;20196;-62
2021/05/15 10:18:19;;;;;;;1999.90;999.90;;;;;;;21.26;44.86;95086.88;5070221;28;20274;-62
2021/05/15 10:20:48;;;;;;;1999.90;999.90;;;;;;;21.16;43.53;95090.22;5070355;28;20272;-62
2021/05/15 10:23:23;;;;;;;1999.90;999.90;;;;;;;21.21;43.47;95092.53;5069701;28;20241;-62
2021/05/15 10:26:01;;;;;;;1999.90;999.90;;;;;;;20.75;44.07;95102.78;5070605;28;20598;-61
2021/05/15 10:28:33;;;;;;;1999.90;999.90;;;;;;;20.18;46.07;95107.59;5070259;28;20590;-63
2021/05/15 10:31:14;;;;;;;1999.90;999.90;;;;;;;19.94;52.92;95111.50;5070476;28;20200;-63
2021/05/15 10:33:43;;;;;;;1999.90;999.90;;;;;;;19.65;60.94;95107.81;5070255;28;20722;-61
2021/05/15 10:36:21;;;;;;;1999.90;999.90;;;;;;;19.41;64.33;95103.00;5069971;28;20243;-62
2021/05/15 10:38:49;;;;;;;1999.90;999.90;;;;;;;19.29;67.00;95100.56;5070065;28;20297;-63
2021/05/15 10:41:20;;;;;;;1999.90;999.90;;;;;;;19.26;66.77;95096.78;5069918;28;20193;-63
2021/05/15 10:43:49;;;;;;;1999.90;999.90;;;;;;;19.30;67.67;95092.31;5069766;28;20227;-65
2021/05/15 10:46:26;;;;;;;1999.90;999.90;;;;;;;19.12;66.42;95085.31;5069874;28;20218;-62
2021/05/15 10:49:15;;;;;;;1999.90;999.90;;;;;;;18.95;68.81;95077.94;5069883;28;20230;-61
2021/05/15 10:51:45;;;;;;;1999.90;999.90;;;;;;;18.83;69.13;95084.94;5069934;28;20331;-62
2021/05/15 10:54:14;;;;;;;1999.90;999.90;;;;;;;18.79;65.57;95089.38;5069833;28;20855;-62
2021/05/15 10:56:42;;;;;;;1999.90;999.90;;;;;;;18.74;64.35;95091.56;5070047;28;20211;-61
2021/05/15 10:59:10;;;;;;;1999.90;999.90;;;;;;;18.46;62.18;95097.16;5070079;28;20228;-61
2021/05/15 11:01:45;;;;;;;1999.90;999.90;;;;;;;18.39;63.63;95097.03;5070000;28;20211;-62
2021/05/15 11:04:27;;;;;;;1999.90;999.90;;;;;;;18.47;61.21;95093.41;5069942;28;20258;-64